sensor_id;sensor_type;location;lat;lon;timestamp;pressure;altitude;pressure_sealevel;temperature;humidity
60228;BME280;46091;46.512;6.626;2023-04-15T00:00:01;95981.22;;;12.80;51.01
60228;BME280;46091;46.512;6.626;2023-04-15T00:02:13;95996.66;;;12.83;50.82
60228;BME280;46091;46.512;6.626;2023-04-15T00:04:17;95991.81;;;12.80;51.29
60228;BME280;46091;46.512;6.626;2023-04-15T00:06:19;96000.78;;;12.79;50.99
60228;BME280;46091;46.512;6.626;2023-04-15T00:08:24;95990.16;;;12.79;51.19
60228;BME280;46091;46.512;6.626;2023-04-15T00:10:27;95985.09;;;12.78;51.44
60228;BME280;46091;46.512;6.626;2023-04-15T00:12:30;95992.81;;;12.79;51.28
60228;BME280;46091;46.512;6.626;2023-04-15T00:14:33;95990.16;;;12.79;51.78
60228;BME280;46091;46.512;6.626;2023-04-15T00:16:36;95995.03;;;12.82;51.47
60228;BME280;46091;46.512;6.626;2023-04-15T00:18:39;95986.28;;;12.82;51.50
60228;BME280;46091;46.512;6.626;2023-04-15T00:20:41;95993.44;;;12.81;51.79
60228;BME280;46091;46.512;6.626;2023-04-15T00:22:44;95986.50;;;12.80;51.91
60228;BME280;46091;46.512;6.626;2023-04-15T00:24:49;95984.44;;;12.82;51.80
60228;BME280;46091;46.512;6.626;2023-04-15T00:26:52;95983.41;;;12.83;51.82
60228;BME280;46091;46.512;6.626;2023-04-15T00:28:55;95989.28;;;12.86;51.94
60228;BME280;46091;46.512;6.626;2023-04-15T00:30:57;95991.13;;;12.85;52.13
60228;BME280;46091;46.512;6.626;2023-04-15T00:33:00;95995.03;;;12.82;52.05
60228;BME280;46091;46.512;6.626;2023-04-15T00:35:04;95993.19;;;12.83;52.45
60228;BME280;46091;46.512;6.626;2023-04-15T00:37:08;95995.47;;;12.79;52.46
60228;BME280;46091;46.512;6.626;2023-04-15T00:39:11;95988.56;;;12.78;52.32
60228;BME280;46091;46.512;6.626;2023-04-15T00:41:15;95988.56;;;12.78;52.32
60228;BME280;46091;46.512;6.626;2023-04-15T00:43:18;95989.03;;;12.75;52.50
60228;BME280;46091;46.512;6.626;2023-04-15T00:45:21;95991.09;;;12.73;52.67
60228;BME280;46091;46.512;6.626;2023-04-15T00:47:25;95987.41;;;12.74;53.00
60228;BME280;46091;46.512;6.626;2023-04-15T00:49:29;95995.59;;;12.73;53.00
60228;BME280;46091;46.512;6.626;2023-04-15T00:51:32;95994.19;;;12.70;52.90
60228;BME280;46091;46.512;6.626;2023-04-15T00:53:37;96001.94;;;12.72;53.10
60228;BME280;46091;46.512;6.626;2023-04-15T00:55:40;95992.34;;;12.71;52.93
60228;BME280;46091;46.512;6.626;2023-04-15T00:57:44;95984.63;;;12.69;53.19
60228;BME280;46091;46.512;6.626;2023-04-15T00:59:47;95986.91;;;12.66;52.94
60228;BME280;46091;46.512;6.626;2023-04-15T01:01:50;95994.28;;;12.64;53.17
60228;BME280;46091;46.512;6.626;2023-04-15T01:03:56;95987.38;;;12.63;53.34
60228;BME280;46091;46.512;6.626;2023-04-15T01:05:59;95978.59;;;12.62;53.42
60228;BME280;46091;46.512;6.626;2023-04-15T01:08:06;95981.84;;;12.64;53.71
60228;BME280;46091;46.512;6.626;2023-04-15T01:10:09;95976.53;;;12.64;53.53
60228;BME280;46091;46.512;6.626;2023-04-15T01:12:13;95980.22;;;12.63;53.56
60228;BME280;46091;46.512;6.626;2023-04-15T01:14:18;95984.38;;;12.59;53.67
60228;BME280;46091;46.512;6.626;2023-04-15T01:16:21;95980.53;;;12.55;53.82
60228;BME280;46091;46.512;6.626;2023-04-15T01:18:24;95984.78;;;12.56;53.69
60228;BME280;46091;46.512;6.626;2023-04-15T01:20:28;95992.31;;;12.59;53.91
60228;BME280;46091;46.512;6.626;2023-04-15T01:22:32;95987.59;;;12.61;53.90
60228;BME280;46091;46.512;6.626;2023-04-15T01:24:36;95990.81;;;12.63;53.81
60228;BME280;46091;46.512;6.626;2023-04-15T01:26:40;95989.22;;;12.62;53.62
60228;BME280;46091;46.512;6.626;2023-04-15T01:28:45;95987.38;;;12.63;54.08
60228;BME280;46091;46.512;6.626;2023-04-15T01:30:48;95987.94;;;12.65;53.86
60228;BME280;46091;46.512;6.626;2023-04-15T01:32:50;95988.97;;;12.64;53.86
60228;BME280;46091;46.512;6.626;2023-04-15T01:34:53;95991.41;;;12.65;54.01
60228;BME280;46091;46.512;6.626;2023-04-15T01:36:56;95997.75;;;12.64;53.92
60228;BME280;46091;46.512;6.626;2023-04-15T01:38:59;95991.41;;;12.65;53.99
60228;BME280;46091;46.512;6.626;2023-04-15T01:41:03;95988.28;;;12.68;54.29
60228;BME280;46091;46.512;6.626;2023-04-15T01:43:09;95984.03;;;12.67;54.31
60228;BME280;46091;46.512;6.626;2023-04-15T01:45:12;95991.63;;;12.64;54.15
60228;BME280;46091;46.512;6.626;2023-04-15T01:47:15;95986.56;;;12.62;54.28
60228;BME280;46091;46.512;6.626;2023-04-15T01:49:18;95980.22;;;12.63;54.78
60228;BME280;46091;46.512;6.626;2023-04-15T01:51:20;95978.59;;;12.62;54.37
60228;BME280;46091;46.512;6.626;2023-04-15T01:53:24;95974.91;;;12.63;54.69
60228;BME280;46091;46.512;6.626;2023-04-15T01:55:27;95975.72;;;12.64;54.82
60228;BME280;46091;46.512;6.626;2023-04-15T01:57:29;95977.34;;;12.65;55.01
60228;BME280;46091;46.512;6.626;2023-04-15T01:59:34;95972.03;;;12.65;54.54
60228;BME280;46091;46.512;6.626;2023-04-15T02:01:37;95971.22;;;12.64;54.67
60228;BME280;46091;46.512;6.626;2023-04-15T02:03:40;95977.56;;;12.63;54.86
60228;BME280;46091;46.512;6.626;2023-04-15T02:05:43;95981.84;;;12.64;54.87
60228;BME280;46091;46.512;6.626;2023-04-15T02:07:46;95972.84;;;12.65;54.94
60228;BME280;46091;46.512;6.626;2023-04-15T02:09:49;95982.63;;;12.65;55.30
60228;BME280;46091;46.512;6.626;2023-04-15T02:11:52;95975.50;;;12.65;55.15
60228;BME280;46091;46.512;6.626;2023-04-15T02:13:55;95975.72;;;12.64;55.38
60228;BME280;46091;46.512;6.626;2023-04-15T02:15:59;95977.00;;;12.61;55.25
60228;BME280;46091;46.512;6.626;2023-04-15T02:18:03;95968.88;;;12.56;54.95
60228;BME280;46091;46.512;6.626;2023-04-15T02:20:07;95970.97;;;12.54;55.31
60228;BME280;46091;46.512;6.626;2023-04-15T02:22:11;95979.94;;;12.53;55.25
60228;BME280;46091;46.512;6.626;2023-04-15T02:24:18;95979.94;;;12.53;55.47
60228;BME280;46091;46.512;6.626;2023-04-15T02:26:21;95967.28;;;12.55;55.59
60228;BME280;46091;46.512;6.626;2023-04-15T02:28:25;95967.28;;;12.55;55.44
60228;BME280;46091;46.512;6.626;2023-04-15T02:30:28;95966.47;;;12.54;55.81
60228;BME280;46091;46.512;6.626;2023-04-15T02:32:33;95971.09;;;12.59;55.91
60228;BME280;46091;46.512;6.626;2023-04-15T02:34:36;95964.78;;;12.60;55.57
60228;BME280;46091;46.512;6.626;2023-04-15T02:36:41;95966.38;;;12.61;56.00
60228;BME280;46091;46.512;6.626;2023-04-15T02:38:44;95959.00;;;12.63;55.87
60228;BME280;46091;46.512;6.626;2023-04-15T02:40:47;95965.91;;;12.64;55.79
60228;BME280;46091;46.512;6.626;2023-04-15T02:42:50;95961.19;;;12.66;55.79
60228;BME280;46091;46.512;6.626;2023-04-15T02:44:53;95954.84;;;12.67;56.12
60228;BME280;46091;46.512;6.626;2023-04-15T02:46:56;95958.53;;;12.66;55.71
60228;BME280;46091;46.512;6.626;2023-04-15T02:49:01;95960.38;;;12.66;55.98
60228;BME280;46091;46.512;6.626;2023-04-15T02:51:11;95963.84;;;12.66;56.18
60228;BME280;46091;46.512;6.626;2023-04-15T02:53:14;95965.47;;;12.67;55.85
60228;BME280;46091;46.512;6.626;2023-04-15T02:55:18;95962.00;;;12.67;55.92
60228;BME280;46091;46.512;6.626;2023-04-15T02:57:20;95960.63;;;12.64;56.09
60228;BME280;46091;46.512;6.626;2023-04-15T02:59:23;95962.69;;;12.62;56.42
60228;BME280;46091;46.512;6.626;2023-04-15T03:01:26;95970.88;;;12.61;56.49
60228;BME280;46091;46.512;6.626;2023-04-15T03:03:29;95964.53;;;12.62;56.28
60228;BME280;46091;46.512;6.626;2023-04-15T03:05:33;95966.38;;;12.61;56.51
60228;BME280;46091;46.512;6.626;2023-04-15T03:07:36;95962.91;;;12.61;56.52
60228;BME280;46091;46.512;6.626;2023-04-15T03:09:40;95962.34;;;12.59;56.33
60228;BME280;46091;46.512;6.626;2023-04-15T03:11:43;95967.66;;;12.59;56.62
60228;BME280;46091;46.512;6.626;2023-04-15T03:13:46;95964.78;;;12.60;56.40
60228;BME280;46091;46.512;6.626;2023-04-15T03:15:49;95967.41;;;12.60;56.67
60228;BME280;46091;46.512;6.626;2023-04-15T03:17:51;95960.50;;;12.59;56.23
60228;BME280;46091;46.512;6.626;2023-04-15T03:19:54;95966.84;;;12.58;56.46
60228;BME280;46091;46.512;6.626;2023-04-15T03:21:59;95959.09;;;12.57;56.46
60228;BME280;46091;46.512;6.626;2023-04-15T03:24:01;95958.28;;;12.56;56.62
60228;BME280;46091;46.512;6.626;2023-04-15T03:26:04;95958.88;;;12.58;56.73
60228;BME280;46091;46.512;6.626;2023-04-15T03:28:07;95963.97;;;12.60;56.42
60228;BME280;46091;46.512;6.626;2023-04-15T03:30:11;95960.50;;;12.59;56.72
60228;BME280;46091;46.512;6.626;2023-04-15T03:32:14;95963.16;;;12.59;56.93
60228;BME280;46091;46.512;6.626;2023-04-15T03:34:17;95957.84;;;12.59;56.62
60228;BME280;46091;46.512;6.626;2023-04-15T03:36:19;95954.38;;;12.59;56.79
60228;BME280;46091;46.512;6.626;2023-04-15T03:38:24;95955.78;;;12.61;56.69
60228;BME280;46091;46.512;6.626;2023-04-15T03:40:27;95958.66;;;12.60;56.57
60228;BME280;46091;46.512;6.626;2023-04-15T03:42:30;95957.84;;;12.59;56.90
60228;BME280;46091;46.512;6.626;2023-04-15T03:44:33;95953.59;;;12.58;56.81
60228;BME280;46091;46.512;6.626;2023-04-15T03:46:35;95956.44;;;12.57;56.88
60228;BME280;46091;46.512;6.626;2023-04-15T03:48:39;95954.00;;;12.55;56.75
60228;BME280;46091;46.512;6.626;2023-04-15T03:50:42;95948.94;;;12.53;56.95
60228;BME280;46091;46.512;6.626;2023-04-15T03:52:45;95949.75;;;12.54;56.84
60228;BME280;46091;46.512;6.626;2023-04-15T03:54:51;95949.97;;;12.52;56.86
60228;BME280;46091;46.512;6.626;2023-04-15T03:56:54;95955.84;;;12.54;56.80
60228;BME280;46091;46.512;6.626;2023-04-15T03:58:57;95958.50;;;12.54;56.83
60228;BME280;46091;46.512;6.626;2023-04-15T04:01:00;95959.31;;;12.55;57.17
60228;BME280;46091;46.512;6.626;2023-04-15T04:03:03;95956.66;;;12.55;57.02
60228;BME280;46091;46.512;6.626;2023-04-15T04:05:06;95955.63;;;12.56;57.01
60228;BME280;46091;46.512;6.626;2023-04-15T04:07:14;95952.41;;;12.54;57.01
60228;BME280;46091;46.512;6.626;2023-04-15T04:09:18;95948.94;;;12.53;57.05
60228;BME280;46091;46.512;6.626;2023-04-15T04:11:22;95954.47;;;12.52;57.05
60228;BME280;46091;46.512;6.626;2023-04-15T04:13:25;95951.81;;;12.52;57.30
60228;BME280;46091;46.512;6.626;2023-04-15T04:15:28;95958.75;;;12.53;57.27
60228;BME280;46091;46.512;6.626;2023-04-15T04:17:31;95951.00;;;12.51;57.33
60228;BME280;46091;46.512;6.626;2023-04-15T04:19:34;95951.00;;;12.51;57.58
60228;BME280;46091;46.512;6.626;2023-04-15T04:21:37;95957.59;;;12.49;57.62
60228;BME280;46091;46.512;6.626;2023-04-15T04:23:40;95954.94;;;12.49;57.51
60228;BME280;46091;46.512;6.626;2023-04-15T04:25:43;95962.66;;;12.50;57.60
60228;BME280;46091;46.512;6.626;2023-04-15T04:27:47;95962.66;;;12.50;57.56
60228;BME280;46091;46.512;6.626;2023-04-15T04:29:50;95966.56;;;12.48;57.39
60228;BME280;46091;46.512;6.626;2023-04-15T04:31:52;95960.69;;;12.46;57.32
60228;BME280;46091;46.512;6.626;2023-04-15T04:33:55;95956.19;;;12.46;57.54
60228;BME280;46091;46.512;6.626;2023-04-15T04:35:58;95959.44;;;12.48;57.62
60228;BME280;46091;46.512;6.626;2023-04-15T04:38:01;95957.00;;;12.47;57.88
60228;BME280;46091;46.512;6.626;2023-04-15T04:40:05;95957.00;;;12.47;57.92
60228;BME280;46091;46.512;6.626;2023-04-15T04:42:08;95964.97;;;12.47;57.70
60228;BME280;46091;46.512;6.626;2023-04-15T04:44:13;95960.22;;;12.49;57.90
60228;BME280;46091;46.512;6.626;2023-04-15T04:46:15;95957.59;;;12.49;57.82
60228;BME280;46091;46.512;6.626;2023-04-15T04:48:18;95955.16;;;12.47;57.96
60228;BME280;46091;46.512;6.626;2023-04-15T04:50:21;95945.38;;;12.48;57.78
60228;BME280;46091;46.512;6.626;2023-04-15T04:52:24;95946.97;;;12.49;58.30
60228;BME280;46091;46.512;6.626;2023-04-15T04:54:27;95946.97;;;12.49;57.92
60228;BME280;46091;46.512;6.626;2023-04-15T04:56:31;95946.16;;;12.48;57.82
60228;BME280;46091;46.512;6.626;2023-04-15T04:58:35;95937.03;;;12.44;58.13
60228;BME280;46091;46.512;6.626;2023-04-15T05:00:40;95942.94;;;12.46;58.26
60228;BME280;46091;46.512;6.626;2023-04-15T05:02:43;95942.72;;;12.48;58.35
60228;BME280;46091;46.512;6.626;2023-04-15T05:04:46;95943.75;;;12.47;58.15
60228;BME280;46091;46.512;6.626;2023-04-15T05:06:50;95940.28;;;12.46;58.59
60228;BME280;46091;46.512;6.626;2023-04-15T05:08:53;95940.06;;;12.48;58.17
60228;BME280;46091;46.512;6.626;2023-04-15T05:10:57;95942.94;;;12.46;58.71
60228;BME280;46091;46.512;6.626;2023-04-15T05:13:00;95943.75;;;12.47;58.73
60228;BME280;46091;46.512;6.626;2023-04-15T05:15:04;95942.13;;;12.46;58.65
60228;BME280;46091;46.512;6.626;2023-04-15T05:17:09;95942.94;;;12.46;58.81
60228;BME280;46091;46.512;6.626;2023-04-15T05:19:11;95941.28;;;12.45;58.43
60228;BME280;46091;46.512;6.626;2023-04-15T05:21:14;95942.13;;;12.46;58.58
60228;BME280;46091;46.512;6.626;2023-04-15T05:23:18;95935.78;;;12.47;58.72
60228;BME280;46091;46.512;6.626;2023-04-15T05:25:21;95944.19;;;12.44;58.88
60228;BME280;46091;46.512;6.626;2023-04-15T05:27:24;95937.84;;;12.45;58.85
60228;BME280;46091;46.512;6.626;2023-04-15T05:29:27;95942.94;;;12.46;58.62
60228;BME280;46091;46.512;6.626;2023-04-15T05:31:29;95943.75;;;12.47;58.93
60228;BME280;46091;46.512;6.626;2023-04-15T05:33:34;95939.25;;;12.47;58.94
60228;BME280;46091;46.512;6.626;2023-04-15T05:35:38;95930.03;;;12.50;58.79
60228;BME280;46091;46.512;6.626;2023-04-15T05:37:42;95928.78;;;12.52;58.85
60228;BME280;46091;46.512;6.626;2023-04-15T05:39:45;95929.56;;;12.53;59.15
60228;BME280;46091;46.512;6.626;2023-04-15T05:41:48;95933.03;;;12.53;58.93
60228;BME280;46091;46.512;6.626;2023-04-15T05:43:51;95927.72;;;12.53;58.88
60228;BME280;46091;46.512;6.626;2023-04-15T05:45:54;95928.53;;;12.54;59.15
60228;BME280;46091;46.512;6.626;2023-04-15T05:47:57;95938.34;;;12.53;58.98
60228;BME280;46091;46.512;6.626;2023-04-15T05:50:02;95935.91;;;12.52;59.26
60228;BME280;46091;46.512;6.626;2023-04-15T05:52:04;95937.53;;;12.53;59.40
60228;BME280;46091;46.512;6.626;2023-04-15T05:54:07;95941.78;;;12.54;59.13
60228;BME280;46091;46.512;6.626;2023-04-15T05:56:10;95941.78;;;12.54;59.38
60228;BME280;46091;46.512;6.626;2023-04-15T05:58:13;95939.72;;;12.56;59.47
60228;BME280;46091;46.512;6.626;2023-04-15T06:00:16;95938.25;;;12.60;59.34
60228;BME280;46091;46.512;6.626;2023-04-15T06:02:19;95940.69;;;12.62;59.31
60228;BME280;46091;46.512;6.626;2023-04-15T06:04:22;95940.09;;;12.60;59.14
60228;BME280;46091;46.512;6.626;2023-04-15T06:06:26;95947.00;;;12.61;59.25
60228;BME280;46091;46.512;6.626;2023-04-15T06:08:29;95941.38;;;12.57;59.33
60228;BME280;46091;46.512;6.626;2023-04-15T06:10:33;95945.63;;;12.58;59.66
60228;BME280;46091;46.512;6.626;2023-04-15T06:12:37;95947.69;;;12.56;59.31
60228;BME280;46091;46.512;6.626;2023-04-15T06:14:40;95951.97;;;12.57;59.54
60228;BME280;46091;46.512;6.626;2023-04-15T06:16:43;95951.38;;;12.55;59.58
60228;BME280;46091;46.512;6.626;2023-04-15T06:18:45;95958.28;;;12.56;59.75
60228;BME280;46091;46.512;6.626;2023-04-15T06:20:48;95958.88;;;12.58;59.62
60228;BME280;46091;46.512;6.626;2023-04-15T06:22:52;95959.09;;;12.57;59.79
60228;BME280;46091;46.512;6.626;2023-04-15T06:24:55;95964.63;;;12.55;59.88
60228;BME280;46091;46.512;6.626;2023-04-15T06:26:58;95959.19;;;12.50;59.74
60228;BME280;46091;46.512;6.626;2023-04-15T06:29:02;95963.91;;;12.48;59.72
60228;BME280;46091;46.512;6.626;2023-04-15T06:31:05;95965.75;;;12.47;59.69
60228;BME280;46091;46.512;6.626;2023-04-15T06:33:08;95966.00;;;12.46;60.14
60228;BME280;46091;46.512;6.626;2023-04-15T06:35:11;95978.06;;;12.42;60.09
60228;BME280;46091;46.512;6.626;2023-04-15T06:37:14;95981.28;;;12.44;60.00
60228;BME280;46091;46.512;6.626;2023-04-15T06:39:18;95976.78;;;12.44;59.94
60228;BME280;46091;46.512;6.626;2023-04-15T06:41:21;95979.44;;;12.44;60.08
60228;BME280;46091;46.512;6.626;2023-04-15T06:43:24;95985.56;;;12.45;60.30
60228;BME280;46091;46.512;6.626;2023-04-15T06:45:27;95980.88;;;12.47;60.32
60228;BME280;46091;46.512;6.626;2023-04-15T06:47:30;95982.91;;;12.45;60.15
60228;BME280;46091;46.512;6.626;2023-04-15T06:49:33;95985.78;;;12.43;60.16
60228;BME280;46091;46.512;6.626;2023-04-15T06:51:36;95989.00;;;12.45;60.40
60228;BME280;46091;46.512;6.626;2023-04-15T06:53:38;95985.78;;;12.43;60.60
60228;BME280;46091;46.512;6.626;2023-04-15T06:55:44;95977.25;;;12.41;60.45
60228;BME280;46091;46.512;6.626;2023-04-15T06:57:47;95986.81;;;12.42;60.25
60228;BME280;46091;46.512;6.626;2023-04-15T06:59:49;95974.38;;;12.43;60.63
60228;BME280;46091;46.512;6.626;2023-04-15T07:01:55;95995.34;;;12.44;60.80
60228;BME280;46091;46.512;6.626;2023-04-15T07:03:58;95991.88;;;12.44;60.82
60228;BME280;46091;46.512;6.626;2023-04-15T07:06:01;95998.47;;;12.41;60.77
60228;BME280;46091;46.512;6.626;2023-04-15T07:08:07;95996.03;;;12.40;60.55
60228;BME280;46091;46.512;6.626;2023-04-15T07:10:09;95990.28;;;12.43;60.84
60228;BME280;46091;46.512;6.626;2023-04-15T07:12:15;95978.06;;;12.42;60.67
60228;BME280;46091;46.512;6.626;2023-04-15T07:14:18;95983.34;;;12.42;60.72
60228;BME280;46091;46.512;6.626;2023-04-15T07:16:21;95984.97;;;12.43;60.80
60228;BME280;46091;46.512;6.626;2023-04-15T07:18:24;95982.31;;;12.43;61.09
60228;BME280;46091;46.512;6.626;2023-04-15T07:20:26;95981.28;;;12.44;60.90
60228;BME280;46091;46.512;6.626;2023-04-15T07:22:29;95976.78;;;12.44;60.71
60228;BME280;46091;46.512;6.626;2023-04-15T07:24:32;95983.94;;;12.44;61.01
60228;BME280;46091;46.512;6.626;2023-04-15T07:26:36;95986.59;;;12.44;61.04
60228;BME280;46091;46.512;6.626;2023-04-15T07:28:40;95983.94;;;12.44;60.74
60228;BME280;46091;46.512;6.626;2023-04-15T07:30:43;95975.19;;;12.43;60.83
60228;BME280;46091;46.512;6.626;2023-04-15T07:32:46;95985.34;;;12.46;61.22
60228;BME280;46091;46.512;6.626;2023-04-15T07:34:49;95978.06;;;12.42;60.83
60228;BME280;46091;46.512;6.626;2023-04-15T07:36:52;95986.25;;;12.40;61.28
60228;BME280;46091;46.512;6.626;2023-04-15T07:38:55;95985.78;;;12.43;60.95
60228;BME280;46091;46.512;6.626;2023-04-15T07:40:58;95982.31;;;12.43;61.18
60228;BME280;46091;46.512;6.626;2023-04-15T07:43:00;95984.56;;;12.46;61.16
60228;BME280;46091;46.512;6.626;2023-04-15T07:45:06;95989.63;;;12.47;61.05
60228;BME280;46091;46.512;6.626;2023-04-15T07:47:09;95993.88;;;12.48;61.38
60228;BME280;46091;46.512;6.626;2023-04-15T07:49:12;95988.59;;;12.48;61.41
60228;BME280;46091;46.512;6.626;2023-04-15T07:51:16;95991.25;;;12.48;61.30
60228;BME280;46091;46.512;6.626;2023-04-15T07:53:19;95995.50;;;12.49;61.29
60228;BME280;46091;46.512;6.626;2023-04-15T07:55:22;95996.66;;;12.53;61.37
60228;BME280;46091;46.512;6.626;2023-04-15T07:57:27;95992.75;;;12.56;61.33
60228;BME280;46091;46.512;6.626;2023-04-15T07:59:29;95990.72;;;12.58;61.45
60228;BME280;46091;46.512;6.626;2023-04-15T08:01:35;95990.09;;;12.56;61.21
60228;BME280;46091;46.512;6.626;2023-04-15T08:03:38;95996.19;;;12.57;61.29
60228;BME280;46091;46.512;6.626;2023-04-15T08:05:41;95992.91;;;12.61;61.68
60228;BME280;46091;46.512;6.626;2023-04-15T08:07:45;95999.34;;;12.65;61.58
60228;BME280;46091;46.512;6.626;2023-04-15T08:09:47;95989.94;;;12.69;61.34
60228;BME280;46091;46.512;6.626;2023-04-15T08:11:50;95993.16;;;12.71;61.37
60228;BME280;46091;46.512;6.626;2023-04-15T08:13:53;95994.78;;;12.72;61.48
60228;BME280;46091;46.512;6.626;2023-04-15T08:16:18;95994.78;;;12.72;61.24
60228;BME280;46091;46.512;6.626;2023-04-15T08:18:22;95989.81;;;12.76;61.65
60228;BME280;46091;46.512;6.626;2023-04-15T08:20:25;95990.63;;;12.76;61.58
60228;BME280;46091;46.512;6.626;2023-04-15T08:22:28;95995.28;;;12.81;61.34
60228;BME280;46091;46.512;6.626;2023-04-15T08:24:31;96002.78;;;12.84;61.49
60228;BME280;46091;46.512;6.626;2023-04-15T08:26:34;95999.31;;;12.83;61.59
60228;BME280;46091;46.512;6.626;2023-04-15T08:28:38;96003.59;;;12.85;61.43
60228;BME280;46091;46.512;6.626;2023-04-15T08:30:41;96007.28;;;12.83;61.32
60228;BME280;46091;46.512;6.626;2023-04-15T08:32:44;96001.16;;;12.83;61.67
60228;BME280;46091;46.512;6.626;2023-04-15T08:34:49;96003.34;;;12.86;61.60
60228;BME280;46091;46.512;6.626;2023-04-15T08:36:52;96010.03;;;12.89;61.39
60228;BME280;46091;46.512;6.626;2023-04-15T08:38:55;96005.19;;;12.86;61.40
60228;BME280;46091;46.512;6.626;2023-04-15T08:41:00;96012.13;;;12.87;61.47
60228;BME280;46091;46.512;6.626;2023-04-15T08:43:07;96012.69;;;12.89;61.43
60228;BME280;46091;46.512;6.626;2023-04-15T08:45:11;96011.66;;;12.90;61.65
60228;BME280;46091;46.512;6.626;2023-04-15T08:47:19;96009.22;;;12.88;61.63
60228;BME280;46091;46.512;6.626;2023-04-15T08:49:25;96011.31;;;12.86;61.46
60228;BME280;46091;46.512;6.626;2023-04-15T08:51:30;96012.34;;;12.85;61.70
60228;BME280;46091;46.512;6.626;2023-04-15T08:53:33;96019.03;;;12.88;61.78
60228;BME280;46091;46.512;6.626;2023-04-15T08:55:41;96029.41;;;12.89;61.65
60228;BME280;46091;46.512;6.626;2023-04-15T08:57:45;96021.47;;;12.89;61.53
60228;BME280;46091;46.512;6.626;2023-04-15T08:59:48;96028.84;;;12.87;61.59
60228;BME280;46091;46.512;6.626;2023-04-15T09:01:53;96035.06;;;12.81;61.79
60228;BME280;46091;46.512;6.626;2023-04-15T09:03:58;96030.56;;;12.81;61.78
60228;BME280;46091;46.512;6.626;2023-04-15T09:06:03;96036.91;;;12.80;61.70
60228;BME280;46091;46.512;6.626;2023-04-15T09:08:07;96036.44;;;12.83;61.50
60228;BME280;46091;46.512;6.626;2023-04-15T09:10:10;96048.69;;;12.85;61.33
60228;BME280;46091;46.512;6.626;2023-04-15T09:12:13;96056.06;;;12.82;61.11
60228;BME280;46091;46.512;6.626;2023-04-15T09:14:17;96052.00;;;12.80;61.03
60228;BME280;46091;46.512;6.626;2023-04-15T09:16:20;96055.91;;;12.77;60.87
60228;BME280;46091;46.512;6.626;2023-04-15T09:18:27;96050.03;;;12.75;60.85
60228;BME280;46091;46.512;6.626;2023-04-15T09:20:37;96057.16;;;12.75;61.02
60228;BME280;46091;46.512;6.626;2023-04-15T09:22:42;96054.16;;;12.71;60.94
60228;BME280;46091;46.512;6.626;2023-04-15T09:24:46;96065.00;;;12.70;60.92
60228;BME280;46091;46.512;6.626;2023-04-15T09:26:52;96070.50;;;12.68;60.65
60228;BME280;46091;46.512;6.626;2023-04-15T09:29:02;96071.09;;;12.70;60.52
60228;BME280;46091;46.512;6.626;2023-04-15T09:31:05;96068.22;;;12.72;60.38
60228;BME280;46091;46.512;6.626;2023-04-15T09:33:08;96076.63;;;12.69;60.51
60228;BME280;46091;46.512;6.626;2023-04-15T09:35:11;96067.03;;;12.68;60.46
60228;BME280;46091;46.512;6.626;2023-04-15T09:37:14;96079.50;;;12.67;60.26
60228;BME280;46091;46.512;6.626;2023-04-15T09:39:49;96073.75;;;12.70;60.24
60228;BME280;46091;46.512;6.626;2023-04-15T09:42:06;96080.44;;;12.73;60.27
60228;BME280;46091;46.512;6.626;2023-04-15T09:44:21;96088.19;;;12.74;60.28
60228;BME280;46091;46.512;6.626;2023-04-15T09:46:39;96086.34;;;12.75;60.46
60228;BME280;46091;46.512;6.626;2023-04-15T09:48:42;96098.34;;;12.77;60.12
60228;BME280;46091;46.512;6.626;2023-04-15T09:50:46;96098.34;;;12.77;60.39
60228;BME280;46091;46.512;6.626;2023-04-15T09:52:50;96109.97;;;12.76;59.89
60228;BME280;46091;46.512;6.626;2023-04-15T09:54:56;96113.09;;;12.73;60.16
60228;BME280;46091;46.512;6.626;2023-04-15T09:57:04;96104.09;;;12.74;60.22
60228;BME280;46091;46.512;6.626;2023-04-15T09:59:08;96113.44;;;12.77;60.24
60228;BME280;46091;46.512;6.626;2023-04-15T10:01:10;96111.59;;;12.77;60.04
60228;BME280;46091;46.512;6.626;2023-04-15T10:03:15;96115.06;;;12.78;59.97
60228;BME280;46091;46.512;6.626;2023-04-15T10:05:19;96120.38;;;12.78;60.17
60228;BME280;46091;46.512;6.626;2023-04-15T10:07:24;96117.47;;;12.79;60.02
60228;BME280;46091;46.512;6.626;2023-04-15T10:09:28;96127.28;;;12.79;60.18
60228;BME280;46091;46.512;6.626;2023-04-15T10:11:34;96127.50;;;12.77;60.04
60228;BME280;46091;46.512;6.626;2023-04-15T10:13:37;96133.63;;;12.78;60.11
60228;BME280;46091;46.512;6.626;2023-04-15T10:15:43;96132.81;;;12.77;60.31
60228;BME280;46091;46.512;6.626;2023-04-15T10:17:47;96138.13;;;12.77;59.90
60228;BME280;46091;46.512;6.626;2023-04-15T10:19:53;96139.59;;;12.73;59.89
60228;BME280;46091;46.512;6.626;2023-04-15T10:21:57;96138.00;;;12.72;59.78
60228;BME280;46091;46.512;6.626;2023-04-15T10:24:00;96140.41;;;12.74;59.93
60228;BME280;46091;46.512;6.626;2023-04-15T10:26:06;96144.34;;;12.71;59.99
60228;BME280;46091;46.512;6.626;2023-04-15T10:28:11;96152.88;;;12.73;59.84
60228;BME280;46091;46.512;6.626;2023-04-15T10:30:15;96148.16;;;12.75;59.61
60228;BME280;46091;46.512;6.626;2023-04-15T10:32:19;96158.75;;;12.75;59.70
60228;BME280;46091;46.512;6.626;2023-04-15T10:34:23;96151.97;;;12.79;59.47
60228;BME280;46091;46.512;6.626;2023-04-15T10:36:26;96163.78;;;12.83;59.93
60228;BME280;46091;46.512;6.626;2023-04-15T10:38:37;96162.97;;;12.83;59.54
60228;BME280;46091;46.512;6.626;2023-04-15T10:40:40;96161.94;;;12.84;59.81
60228;BME280;46091;46.512;6.626;2023-04-15T10:42:43;96164.13;;;12.87;59.35
60228;BME280;46091;46.512;6.626;2023-04-15T10:44:50;96161.03;;;12.90;59.31
60228;BME280;46091;46.512;6.626;2023-04-15T10:46:53;96157.78;;;12.88;59.33
60228;BME280;46091;46.512;6.626;2023-04-15T10:49:06;96168.03;;;12.85;59.68
60228;BME280;46091;46.512;6.626;2023-04-15T10:51:13;96168.03;;;12.85;59.62
60228;BME280;46091;46.512;6.626;2023-04-15T10:53:26;96159.91;;;12.79;59.31
60228;BME280;46091;46.512;6.626;2023-04-15T10:55:31;96162.56;;;12.79;59.36